Palmdale Regional,USAF Plant 42 Airport Palmdale US
ICAO: KPMD
IATA: PMD
Category: Medium
Scheduled Services: Yes

Elevation: 2543 ft
TransAlt. 18000 ft.

Airport Communications:
JOSHUA APP/DEP:124.55
ASOS:118.275
CTAF:123.7
GND:121.9
TWR:123.7

KPMD Zoom In..

If you have problems with the map follow the link
https://www.worldairports.se/pages/airport.php?
ICAO=KPMD

Runways:

(A) RW 04 length 12001 ft width 150 ft
---- / hdg 37

(B) RW 07 length 12002 ft width 200 ft
---- / hdg 71

(C) RW 22 length 12001 ft width 150 ft
---- / hdg 217

(D) RW 25 length 12002 ft width 200 ft
ILS 110.70 / hdg 251

Location; KPMD
Day. 22 / Time. 10.53 Zulu
* Altimeter: 29.95
* Temperature: 12° c. 53.6°f.
* Wind from: 180° Speed 05 kn.
Dewpoint: 02° c.
Visibility: 10 Statute Miles.
Clouds: Few 9000 ft.

KPMD 221053Z AUTO 18005KT 10SM FEW090 12/02 A2995 RMK AO2 SLP120 T01220022


Wind From 180°
Speed 05 kn.

 
 
jpsmedia.com for Web Design worldairports.se 2018   terms of use